createdAt,value
2023-04-17T00:02:13.641Z,100821.88
2023-04-17T00:04:42.235Z,100822.93
2023-04-17T00:07:09.958Z,100820.84
2023-04-17T00:09:38.249Z,100820.77
2023-04-17T00:12:05.816Z,100820.34
2023-04-17T00:14:33.051Z,100822.16
2023-04-17T00:17:00.082Z,100822.98
2023-04-17T00:19:27.322Z,100820.45
2023-04-17T00:21:54.499Z,100820.01
2023-04-17T00:24:21.456Z,100822.93
2023-04-17T00:26:48.672Z,100817.78
2023-04-17T00:29:15.820Z,100817.98
2023-04-17T00:31:43.755Z,100819.23
2023-04-17T00:34:11.148Z,100815.50
2023-04-17T00:36:38.487Z,100813.38
2023-04-17T00:39:05.781Z,100815.98
2023-04-17T00:41:33.309Z,100819.10
2023-04-17T00:44:00.497Z,100820.02
2023-04-17T00:46:27.525Z,100823.89
2023-04-17T00:48:54.965Z,100822.14
2023-04-17T00:51:22.433Z,100823.39
2023-04-17T00:53:49.495Z,100820.20
2023-04-17T00:56:16.930Z,100822.47
2023-04-17T00:58:44.076Z,100823.20
2023-04-17T01:01:11.276Z,100822.58
2023-04-17T01:03:38.901Z,100826.87
2023-04-17T01:06:06.381Z,100826.21
2023-04-17T01:08:41.066Z,100829.56
2023-04-17T01:11:09.056Z,100831.69
2023-04-17T01:13:56.674Z,100834.56
2023-04-17T01:16:24.074Z,100831.98
2023-04-17T01:18:51.500Z,100830.98
2023-04-17T01:21:18.942Z,100831.23
2023-04-17T01:23:53.269Z,100830.52
2023-04-17T01:26:23.698Z,100828.16
2023-04-17T01:28:54.936Z,100829.03
2023-04-17T01:31:22.384Z,100828.27
2023-04-17T01:33:50.171Z,100827.48
2023-04-17T01:36:17.468Z,100826.61
2023-04-17T01:38:44.656Z,100828.69
2023-04-17T01:41:12.220Z,100827.83
2023-04-17T01:43:43.861Z,100828.98
2023-04-17T01:46:11.670Z,100828.36
2023-04-17T01:48:39.399Z,100829.01
2023-04-17T01:51:06.551Z,100833.23
2023-04-17T01:53:34.744Z,100837.95
2023-04-17T01:56:02.277Z,100835.00
2023-04-17T01:58:30.541Z,100838.05
2023-04-17T02:00:57.727Z,100838.06
2023-04-17T02:03:25.147Z,100843.77
2023-04-17T02:05:55.020Z,100842.23
2023-04-17T02:08:22.421Z,100842.48
2023-04-17T02:10:49.896Z,100845.40
2023-04-17T02:13:17.334Z,100840.95
2023-04-17T02:15:44.420Z,100845.13
2023-04-17T02:18:13.269Z,100846.38
2023-04-17T02:20:40.551Z,100845.86
2023-04-17T02:23:08.083Z,100845.71
2023-04-17T02:25:35.648Z,100845.51
2023-04-17T02:28:03.820Z,100848.88
2023-04-17T02:30:31.320Z,100850.69
2023-04-17T02:32:58.787Z,100848.72
2023-04-17T02:35:28.969Z,100850.13
2023-04-17T02:37:56.632Z,100851.14
2023-04-17T02:40:24.222Z,100850.58
2023-04-17T02:42:56.128Z,100857.45
2023-04-17T02:45:23.291Z,100859.52
2023-04-17T02:47:50.826Z,100856.77
2023-04-17T02:50:18.522Z,100857.95
2023-04-17T02:53:14.855Z,100855.16
2023-04-17T02:55:42.673Z,100859.57
2023-04-17T02:58:09.762Z,100859.27
2023-04-17T03:00:37.048Z,100862.73
2023-04-17T03:03:05.112Z,100865.44
2023-04-17T03:05:32.464Z,100865.92
2023-04-17T03:08:00.608Z,100867.34
2023-04-17T03:10:31.582Z,100866.45
2023-04-17T03:12:58.808Z,100870.95
2023-04-17T03:15:26.147Z,100873.39
2023-04-17T03:17:53.859Z,100871.88
2023-04-17T03:20:21.775Z,100873.04
2023-04-17T03:22:48.951Z,100874.55
2023-04-17T03:25:16.085Z,100876.89
2023-04-17T03:27:47.669Z,100880.02
2023-04-17T03:30:15.129Z,100877.69
2023-04-17T03:32:46.299Z,100881.95
2023-04-17T03:35:13.391Z,100884.77
2023-04-17T03:37:41.302Z,100883.83
2023-04-17T03:40:09.112Z,100889.72
2023-04-17T03:42:36.327Z,100892.62
2023-04-17T03:45:04.984Z,100896.70
2023-04-17T03:47:33.082Z,100896.81
2023-04-17T03:50:00.631Z,100903.16
2023-04-17T03:52:29.469Z,100902.58
2023-04-17T03:54:58.458Z,100908.53
2023-04-17T03:57:26.630Z,100910.02
2023-04-17T03:59:54.193Z,100907.91
2023-04-17T04:02:23.427Z,100910.48
2023-04-17T04:04:51.702Z,100910.48
2023-04-17T04:07:19.125Z,100910.30
2023-04-17T04:09:46.507Z,100914.34
2023-04-17T04:12:14.071Z,100913.34
2023-04-17T04:14:42.961Z,100913.70
2023-04-17T04:17:10.797Z,100917.55
2023-04-17T04:19:38.656Z,100919.02
2023-04-17T04:22:06.986Z,100919.73
2023-04-17T04:24:42.952Z,100924.11
2023-04-17T04:27:13.107Z,100926.91
2023-04-17T04:29:45.998Z,100927.70
2023-04-17T04:32:15.962Z,100925.42
2023-04-17T04:34:45.760Z,100925.14
2023-04-17T04:37:16.341Z,100919.54
2023-04-17T04:39:47.433Z,100918.79
2023-04-17T04:42:22.302Z,100917.08
2023-04-17T04:45:06.268Z,100917.36
2023-04-17T04:47:33.877Z,100919.39
2023-04-17T04:50:01.298Z,100922.10
2023-04-17T04:52:28.425Z,100917.69
2023-04-17T04:54:58.242Z,100915.83
2023-04-17T04:57:27.242Z,100915.56
2023-04-17T04:59:56.558Z,100914.23
2023-04-17T05:02:31.310Z,100918.32
2023-04-17T05:05:00.554Z,100920.08
2023-04-17T05:07:28.335Z,100921.52
2023-04-17T05:09:55.902Z,100919.47
2023-04-17T05:12:24.094Z,100917.98
2023-04-17T05:14:51.458Z,100916.16
2023-04-17T05:17:19.490Z,100918.86
2023-04-17T05:19:47.865Z,100914.23
2023-04-17T05:22:16.146Z,100919.58
2023-04-17T05:24:57.737Z,100921.08
2023-04-17T05:27:27.154Z,100923.63
2023-04-17T05:29:54.324Z,100921.58
2023-04-17T05:32:21.781Z,100922.60
2023-04-17T05:34:58.634Z,100930.19
2023-04-17T05:37:27.205Z,100930.63
2023-04-17T05:39:55.686Z,100933.36
2023-04-17T05:42:23.341Z,100931.02
2023-04-17T05:44:50.601Z,100927.46
2023-04-17T05:47:18.463Z,100924.67
2023-04-17T05:49:45.934Z,100923.48
2023-04-17T05:52:13.865Z,100925.35
2023-04-17T05:54:43.126Z,100927.89
2023-04-17T05:57:10.736Z,100917.39
2023-04-17T05:59:38.400Z,100921.87
2023-04-17T06:02:07.873Z,100925.75
2023-04-17T06:04:36.888Z,100919.09
2023-04-17T06:07:06.333Z,100919.55
2023-04-17T06:09:35.561Z,100922.77
2023-04-17T06:12:03.984Z,100920.77
2023-04-17T06:14:31.573Z,100915.38
2023-04-17T06:16:58.966Z,100914.34
2023-04-17T06:19:26.150Z,100918.34
2023-04-17T06:21:53.633Z,100919.23
2023-04-17T06:24:20.868Z,100916.45
2023-04-17T06:26:48.245Z,100920.73
2023-04-17T06:29:17.206Z,100918.94
2023-04-17T06:31:44.942Z,100920.11
2023-04-17T06:34:13.297Z,100925.10
2023-04-17T06:36:43.243Z,100916.35
2023-04-17T06:39:11.073Z,100914.81
2023-04-17T06:41:38.566Z,100924.61
2023-04-17T06:44:06.529Z,100916.68
2023-04-17T06:46:52.863Z,100920.20
2023-04-17T06:49:19.954Z,100915.15
2023-04-17T06:51:47.519Z,100919.35
2023-04-17T06:54:14.616Z,100911.19
2023-04-17T06:56:41.811Z,100913.23
2023-04-17T06:59:09.570Z,100908.36
2023-04-17T07:01:38.203Z,100907.64
2023-04-17T07:04:06.175Z,100909.80
2023-04-17T07:06:34.711Z,100908.08
2023-04-17T07:09:02.094Z,100907.52
2023-04-17T07:11:29.486Z,100902.37
2023-04-17T07:13:56.387Z,100898.58
2023-04-17T07:16:23.437Z,100889.96
2023-04-17T07:18:51.079Z,100888.41
2023-04-17T07:21:18.766Z,100894.82
2023-04-17T07:23:45.885Z,100886.77
2023-04-17T07:26:12.819Z,100892.85
2023-04-17T07:28:40.005Z,100890.16
2023-04-17T07:31:08.820Z,100886.98
2023-04-17T07:33:38.916Z,100881.39
2023-04-17T07:36:09.306Z,100876.56
2023-04-17T07:38:37.602Z,100873.70
2023-04-17T07:41:06.656Z,100874.75
2023-04-17T07:43:33.754Z,100871.23
2023-04-17T07:46:00.773Z,100869.20
2023-04-17T07:48:27.802Z,100869.06
2023-04-17T07:50:54.918Z,100869.52
2023-04-17T07:53:22.279Z,100864.05
2023-04-17T07:55:49.286Z,100858.52
2023-04-17T07:58:16.639Z,100855.30
2023-04-17T08:00:43.602Z,100850.60
2023-04-17T08:03:11.072Z,100860.98
2023-04-17T08:05:40.390Z,100852.46
2023-04-17T08:08:07.783Z,100855.75
2023-04-17T08:10:34.839Z,100856.25
2023-04-17T08:13:02.225Z,100853.73
2023-04-17T08:15:29.378Z,100852.58
2023-04-17T08:17:57.945Z,100846.66
2023-04-17T08:20:25.074Z,100851.10
2023-04-17T08:22:52.230Z,100848.29
2023-04-17T08:25:19.325Z,100851.34
2023-04-17T08:27:46.298Z,100848.95
2023-04-17T08:30:15.057Z,100843.95
2023-04-17T08:32:46.146Z,100836.72
2023-04-17T08:35:14.333Z,100830.70
2023-04-17T08:37:42.194Z,100827.44
2023-04-17T08:40:09.998Z,100831.51
2023-04-17T08:42:37.547Z,100825.20
2023-04-17T08:45:05.888Z,100814.23
2023-04-17T08:47:34.742Z,100820.65
2023-04-17T08:50:09.518Z,100810.20
2023-04-17T08:52:54.757Z,100807.69
2023-04-17T08:55:25.019Z,100818.02
2023-04-17T08:57:58.876Z,100812.39
2023-04-17T09:00:27.388Z,100804.16
2023-04-17T09:02:55.612Z,100792.27
2023-04-17T09:05:23.513Z,100794.00
2023-04-17T09:07:51.893Z,100787.86
2023-04-17T09:10:18.955Z,100787.04
2023-04-17T09:12:59.426Z,100781.31
2023-04-17T09:15:27.181Z,100775.52
2023-04-17T09:17:54.297Z,100771.91
2023-04-17T09:20:21.386Z,100772.45
2023-04-17T09:22:48.426Z,100772.48
2023-04-17T09:25:23.402Z,100763.48
2023-04-17T09:27:50.457Z,100764.29
2023-04-17T09:30:17.337Z,100760.50
2023-04-17T09:32:44.593Z,100760.36
2023-04-17T09:35:12.155Z,100756.10
2023-04-17T09:37:51.336Z,100748.58
2023-04-17T09:40:19.467Z,100750.97
2023-04-17T09:43:00.539Z,100752.96
2023-04-17T09:45:33.450Z,100736.48
2023-04-17T09:48:01.200Z,100744.61
2023-04-17T09:50:28.368Z,100738.92
2023-04-17T09:52:56.197Z,100739.40
2023-04-17T09:55:24.258Z,100731.44
2023-04-17T09:57:55.870Z,100737.66
2023-04-17T10:00:23.824Z,100737.70
2023-04-17T10:02:54.250Z,100730.27
2023-04-17T10:05:22.095Z,100727.55
2023-04-17T10:07:49.025Z,100732.42
2023-04-17T10:10:31.335Z,100724.60
2023-04-17T10:13:00.362Z,100728.47
2023-04-17T10:15:27.670Z,100726.27
2023-04-17T10:17:56.538Z,100720.23
2023-04-17T10:20:23.766Z,100724.02
2023-04-17T10:22:56.264Z,100719.05
2023-04-17T10:25:24.452Z,100716.27
2023-04-17T10:27:53.551Z,100719.04
2023-04-17T10:30:22.800Z,100719.56
2023-04-17T10:33:21.994Z,100706.61
2023-04-17T10:35:49.328Z,100692.78
2023-04-17T10:38:17.597Z,100708.86
2023-04-17T10:40:44.907Z,100701.81
2023-04-17T10:43:20.623Z,100701.52
2023-04-17T10:45:58.046Z,100704.83
2023-04-17T10:48:39.061Z,100691.21
2023-04-17T10:51:21.283Z,100686.23
2023-04-17T10:53:49.249Z,100686.75
2023-04-17T10:56:26.513Z,100682.88
2023-04-17T10:59:04.389Z,100681.77
2023-04-17T11:01:32.916Z,100680.61
2023-04-17T11:04:00.305Z,100672.98
2023-04-17T11:06:31.412Z,100682.77
2023-04-17T11:08:59.359Z,100671.13
2023-04-17T11:11:43.031Z,100664.06
2023-04-17T11:19:41.502Z,100664.14
2023-04-17T11:22:10.158Z,100659.53
2023-04-17T11:24:37.717Z,100657.76
2023-04-17T11:27:04.967Z,100665.06
2023-04-17T11:29:32.154Z,100657.80
2023-04-17T11:32:01.110Z,100661.55
2023-04-17T11:34:28.915Z,100652.86
2023-04-17T11:37:00.486Z,100646.94
2023-04-17T11:39:32.138Z,100646.44
2023-04-17T11:41:59.257Z,100637.67
2023-04-17T11:44:26.599Z,100627.86
2023-04-17T11:46:56.776Z,100629.41
2023-04-17T11:49:28.284Z,100624.59
2023-04-17T11:51:57.022Z,100627.17
2023-04-17T11:54:30.972Z,100616.48
2023-04-17T11:57:02.328Z,100610.84
2023-04-17T11:59:30.067Z,100603.54
2023-04-17T12:01:59.849Z,100609.23
2023-04-17T12:04:29.250Z,100603.89
2023-04-17T12:06:59.173Z,100605.89
2023-04-17T12:09:31.841Z,100599.08
2023-04-17T12:12:04.964Z,100599.15
2023-04-17T12:14:33.450Z,100594.14
2023-04-17T12:17:01.434Z,100591.74
2023-04-17T12:19:30.019Z,100590.23
2023-04-17T12:21:57.699Z,100592.94
2023-04-17T12:24:25.447Z,100594.19
2023-04-17T12:26:53.353Z,100589.45
2023-04-17T12:29:29.481Z,100595.58
2023-04-17T12:32:04.926Z,100597.02
2023-04-17T12:34:32.344Z,100595.27
2023-04-17T12:37:00.013Z,100583.52
2023-04-17T12:39:27.366Z,100587.50
2023-04-17T12:41:54.531Z,100577.16
2023-04-17T12:44:21.724Z,100583.28
2023-04-17T12:46:48.702Z,100584.56
2023-04-17T12:49:16.133Z,100585.52
2023-04-17T12:51:43.214Z,100581.35
2023-04-17T12:54:11.043Z,100590.83
2023-04-17T12:56:38.642Z,100587.50
2023-04-17T12:59:05.705Z,100586.66
2023-04-17T13:01:32.940Z,100583.88
2023-04-17T13:04:00.189Z,100586.94
2023-04-17T13:06:28.444Z,100585.79
2023-04-17T13:08:55.716Z,100584.07
2023-04-17T13:11:22.692Z,100579.48
2023-04-17T13:13:49.560Z,100589.31
2023-04-17T13:16:17.077Z,100582.27
2023-04-17T13:18:44.495Z,100578.18
2023-04-17T13:21:11.559Z,100592.91
2023-04-17T13:23:38.693Z,100584.08
2023-04-17T13:26:05.936Z,100579.23
2023-04-17T13:28:34.107Z,100583.48
2023-04-17T13:31:02.130Z,100582.15
2023-04-17T13:33:29.263Z,100577.48
2023-04-17T13:35:56.430Z,100579.45
2023-04-17T13:38:23.721Z,100581.61
2023-04-17T13:40:50.740Z,100591.66
2023-04-17T13:43:18.163Z,100586.29
2023-04-17T13:45:45.309Z,100584.26
2023-04-17T13:48:12.535Z,100577.05
2023-04-17T13:50:40.038Z,100580.31
2023-04-17T13:53:08.939Z,100587.42
2023-04-17T13:55:37.319Z,100574.80
2023-04-17T13:58:04.684Z,100572.71
2023-04-17T14:00:32.401Z,100573.94
2023-04-17T14:03:01.063Z,100587.52
2023-04-17T14:05:28.563Z,100574.66
2023-04-17T14:07:56.138Z,100567.16
2023-04-17T14:10:23.303Z,100573.36
2023-04-17T14:12:50.517Z,100561.35
2023-04-17T14:15:17.867Z,100560.16
2023-04-17T14:17:45.261Z,100566.23
2023-04-17T14:20:15.136Z,100554.63
2023-04-17T14:22:42.654Z,100567.05
2023-04-17T14:25:09.871Z,100557.11
2023-04-17T14:27:37.215Z,100560.08
2023-04-17T14:30:05.235Z,100554.56
2023-04-17T14:32:33.163Z,100550.02
2023-04-17T14:35:01.392Z,100551.52
2023-04-17T14:37:28.598Z,100556.86
2023-04-17T14:39:57.879Z,100551.52
2023-04-17T14:50:28.578Z,100559.15
2023-04-17T14:52:55.457Z,100560.77
2023-04-17T14:55:23.185Z,100555.63
2023-04-17T14:57:49.928Z,100551.59
2023-04-17T15:00:16.893Z,100553.71
2023-04-17T15:02:44.557Z,100550.71
2023-04-17T15:05:11.388Z,100545.20
2023-04-17T15:07:38.435Z,100542.29
2023-04-17T15:10:05.694Z,100540.97
2023-04-17T15:12:32.400Z,100544.10
2023-04-17T15:14:58.895Z,100546.05
2023-04-17T15:17:25.523Z,100544.34
2023-04-17T15:19:54.447Z,100544.64
2023-04-17T15:22:21.050Z,100539.65
2023-04-17T15:24:47.741Z,100529.33
2023-04-17T15:27:14.145Z,100542.41
2023-04-17T15:29:40.906Z,100535.66
2023-04-17T15:32:07.548Z,100533.35
2023-04-17T15:34:34.675Z,100542.86
2023-04-17T15:37:00.938Z,100537.52
2023-04-17T15:39:27.262Z,100541.27
2023-04-17T15:41:53.976Z,100542.44
2023-04-17T15:44:20.227Z,100539.19
2023-04-17T15:46:46.395Z,100541.29
2023-04-17T15:49:12.942Z,100546.37
2023-04-17T15:51:41.383Z,100544.64
2023-04-17T15:54:08.294Z,100543.41
2023-04-17T15:56:34.874Z,100547.77
2023-04-17T15:59:01.594Z,100544.89
2023-04-17T16:01:31.640Z,100544.39
2023-04-17T16:03:59.635Z,100547.54
2023-04-17T16:06:26.998Z,100548.05
2023-04-17T16:08:53.618Z,100544.63
2023-04-17T16:11:20.159Z,100543.73
2023-04-17T16:13:46.438Z,100540.48
2023-04-17T16:16:12.885Z,100537.44
2023-04-17T16:18:39.308Z,100536.54
2023-04-17T16:21:09.785Z,100534.46
2023-04-17T16:23:38.376Z,100534.51
2023-04-17T16:26:07.905Z,100536.43
2023-04-17T16:28:34.818Z,100540.70
2023-04-17T16:31:01.377Z,100540.02
2023-04-17T16:33:27.971Z,100541.84
2023-04-17T16:35:55.479Z,100539.85
2023-04-17T16:38:21.924Z,100541.09
2023-04-17T16:40:48.327Z,100540.80
2023-04-17T16:43:14.734Z,100539.85
2023-04-17T16:45:41.477Z,100545.45
2023-04-17T16:48:08.549Z,100541.98
2023-04-17T16:50:34.947Z,100546.92
2023-04-17T16:53:01.605Z,100544.95
2023-04-17T16:55:27.895Z,100547.33
2023-04-17T16:57:55.017Z,100552.98
2023-04-17T17:00:21.492Z,100552.70
2023-04-17T17:02:48.021Z,100556.23
2023-04-17T17:05:15.164Z,100558.94
2023-04-17T17:07:42.764Z,100561.16
2023-04-17T17:10:09.593Z,100560.59
2023-04-17T17:12:36.266Z,100562.40
2023-04-17T17:15:03.339Z,100566.98
2023-04-17T17:17:30.375Z,100569.80
2023-04-17T17:19:56.861Z,100573.78
2023-04-17T17:22:23.105Z,100575.80
2023-04-17T17:24:49.504Z,100579.57
2023-04-17T17:27:15.810Z,100576.13
2023-04-17T17:29:42.195Z,100579.73
2023-04-17T17:32:08.772Z,100581.35
2023-04-17T17:34:36.220Z,100580.86
2023-04-17T17:37:03.269Z,100583.70
2023-04-17T17:39:29.830Z,100584.30
2023-04-17T17:41:56.679Z,100586.62
2023-04-17T17:44:23.713Z,100586.59
2023-04-17T17:46:50.154Z,100585.11
2023-04-17T17:49:16.854Z,100585.30
2023-04-17T17:51:43.805Z,100585.55
2023-04-17T17:54:10.547Z,100589.30
2023-04-17T17:56:37.798Z,100587.41
2023-04-17T17:59:04.293Z,100592.55
2023-04-17T18:01:30.714Z,100591.52
2023-04-17T18:03:57.305Z,100592.01
2023-04-17T18:06:24.448Z,100589.36
2023-04-17T18:08:52.309Z,100591.06
2023-04-17T18:11:18.842Z,100589.35
2023-04-17T18:13:45.320Z,100587.70
2023-04-17T18:16:11.760Z,100591.90
2023-04-17T18:18:38.564Z,100589.24
2023-04-17T18:21:06.403Z,100587.67
2023-04-17T18:23:33.192Z,100588.92
2023-04-17T18:26:00.459Z,100591.02
2023-04-17T18:28:26.756Z,100590.64
2023-04-17T18:30:53.083Z,100588.17
2023-04-17T18:33:20.116Z,100585.33
2023-04-17T18:35:46.655Z,100585.29
2023-04-17T18:38:13.971Z,100583.70
2023-04-17T18:40:40.330Z,100585.61
2023-04-17T18:43:09.360Z,100581.00
2023-04-17T18:45:35.927Z,100586.05
2023-04-17T18:48:02.426Z,100581.77
2023-04-17T18:50:29.798Z,100581.16
2023-04-17T18:52:56.292Z,100579.27
2023-04-17T18:55:22.600Z,100580.34
2023-04-17T18:57:48.861Z,100581.17
2023-04-17T19:00:15.362Z,100578.09
2023-04-17T19:02:41.871Z,100576.80
2023-04-17T19:05:08.458Z,100573.95
2023-04-17T19:07:35.108Z,100569.72
2023-04-17T19:10:01.341Z,100572.14
2023-04-17T19:12:27.657Z,100568.66
2023-04-17T19:14:56.660Z,100566.40
2023-04-17T19:17:24.643Z,100561.35
2023-04-17T19:19:50.965Z,100564.44
2023-04-17T19:22:17.914Z,100567.04
2023-04-17T19:24:46.030Z,100565.30
2023-04-17T19:27:12.251Z,100566.31
2023-04-17T19:29:38.621Z,100569.83
2023-04-17T19:32:05.138Z,100570.83
2023-04-17T19:34:31.981Z,100568.42
2023-04-17T19:36:58.213Z,100571.60
2023-04-17T19:39:25.923Z,100567.17
2023-04-17T19:41:52.176Z,100572.48
2023-04-17T19:44:18.609Z,100567.74
2023-04-17T19:46:44.853Z,100569.75
2023-04-17T19:49:11.431Z,100574.94
2023-04-17T19:51:38.299Z,100572.96
2023-04-17T19:54:04.534Z,100572.60
2023-04-17T19:56:31.855Z,100575.54
2023-04-17T19:59:01.223Z,100572.77
2023-04-17T20:01:29.321Z,100577.02
2023-04-17T20:03:55.662Z,100583.52
2023-04-17T20:06:22.033Z,100574.06
2023-04-17T20:08:49.242Z,100577.86
2023-04-17T20:11:15.631Z,100579.79
2023-04-17T20:13:42.488Z,100575.29
2023-04-17T20:16:08.737Z,100576.83
2023-04-17T20:18:36.717Z,100576.95
2023-04-17T20:21:05.307Z,100572.45
2023-04-17T20:23:31.891Z,100569.69
2023-04-17T20:25:58.157Z,100568.66
2023-04-17T20:28:24.431Z,100568.66
2023-04-17T20:30:50.791Z,100568.88
2023-04-17T20:33:17.388Z,100567.14
2023-04-17T20:35:43.864Z,100563.02
2023-04-17T20:38:10.387Z,100568.33
2023-04-17T20:40:36.593Z,100568.02
2023-04-17T20:43:03.235Z,100569.56
2023-04-17T20:45:29.717Z,100571.15
2023-04-17T20:47:57.235Z,100568.75
2023-04-17T20:50:24.252Z,100562.40
2023-04-17T20:52:50.454Z,100567.98
2023-04-17T20:55:19.018Z,100561.98
2023-04-17T20:57:45.468Z,100562.05
2023-04-17T21:00:12.177Z,100561.29
2023-04-17T21:02:38.469Z,100558.63
2023-04-17T21:05:06.217Z,100559.45
2023-04-17T21:07:32.774Z,100560.42
2023-04-17T21:09:59.246Z,100556.38
2023-04-17T21:12:25.493Z,100556.20
2023-04-17T21:14:51.819Z,100557.56
2023-04-17T21:17:18.046Z,100563.12
2023-04-17T21:19:45.410Z,100560.63
2023-04-17T21:22:12.681Z,100556.96
2023-04-17T21:24:39.128Z,100558.51
2023-04-17T21:27:05.640Z,100560.80
2023-04-17T21:29:32.567Z,100560.54
2023-04-17T21:31:59.218Z,100567.34
2023-04-17T21:34:25.731Z,100566.55
2023-04-17T21:36:52.757Z,100571.52
2023-04-17T21:39:19.062Z,100567.95
2023-04-17T21:41:45.504Z,100569.65
2023-04-17T21:44:12.301Z,100568.95
2023-04-17T21:46:38.844Z,100566.28
2023-04-17T21:49:05.438Z,100569.88
2023-04-17T21:51:31.641Z,100567.56
2023-04-17T21:53:57.970Z,100564.53
2023-04-17T21:56:24.324Z,100559.05
2023-04-17T21:58:53.374Z,100562.88
2023-04-17T22:01:19.794Z,100558.98
2023-04-17T22:03:46.434Z,100557.29
2023-04-17T22:06:12.792Z,100559.28
2023-04-17T22:08:39.188Z,100560.14
2023-04-17T22:11:05.373Z,100559.72
2023-04-17T22:13:32.572Z,100559.16
2023-04-17T22:15:58.725Z,100559.17
2023-04-17T22:18:26.405Z,100559.20
2023-04-17T22:20:52.600Z,100554.50
2023-04-17T22:23:18.948Z,100552.90
2023-04-17T22:25:45.166Z,100552.70
2023-04-17T22:28:11.730Z,100548.72
2023-04-17T22:30:37.947Z,100551.86
2023-04-17T22:33:04.394Z,100547.83
2023-04-17T22:35:30.614Z,100545.35
2023-04-17T22:37:56.798Z,100546.89
2023-04-17T22:40:22.996Z,100544.52
2023-04-17T22:42:49.969Z,100549.91
2023-04-17T22:45:16.466Z,100547.59
2023-04-17T22:47:42.876Z,100550.16
2023-04-17T22:50:10.169Z,100546.45
2023-04-17T22:52:36.636Z,100544.25
2023-04-17T22:55:03.532Z,100542.70
2023-04-17T22:57:30.082Z,100541.48
2023-04-17T22:59:56.566Z,100539.39
2023-04-17T23:02:22.927Z,100542.14
2023-04-17T23:04:49.175Z,100544.65
2023-04-17T23:07:15.586Z,100542.20
2023-04-17T23:09:41.779Z,100539.98
2023-04-17T23:12:08.104Z,100543.36
2023-04-17T23:14:35.547Z,100545.15
2023-04-17T23:17:02.192Z,100542.50
2023-04-17T23:19:28.522Z,100541.24
2023-04-17T23:21:55.080Z,100541.66
2023-04-17T23:24:21.357Z,100540.30
2023-04-17T23:26:48.156Z,100540.40
2023-04-17T23:29:14.330Z,100540.89
2023-04-17T23:31:42.211Z,100536.02
2023-04-17T23:36:36.215Z,100536.86
2023-04-17T23:39:04.342Z,100531.05
2023-04-17T23:41:33.937Z,100524.94
2023-04-17T23:44:01.098Z,100530.27
2023-04-17T23:46:28.175Z,100531.36
2023-04-17T23:48:55.330Z,100528.58
2023-04-17T23:51:23.108Z,100530.86
2023-04-17T23:53:51.130Z,100528.16
2023-04-17T23:56:21.457Z,100526.73
2023-04-17T23:58:48.493Z,100531.84
